Time,TemperatureF,DewpointF,PressureIn,WindDirection,WindDirectionDegrees,WindSpeedMPH,WindSpeedGustMPH,Humidity,HourlyPrecipIn,Conditions,Clouds,dailyrainin,SoftwareType,DateUTC
2013-03-19 00:03:00,52.9,44.1,30.08,West,268,0.0,0.0,72,0.00,,,0.00,Wunderground v.1.15,2013-03-19 07:03:00,
2013-03-19 00:11:00,52.9,44.1,30.08,West,268,0.0,0.0,72,0.00,,,0.00,Wunderground v.1.15,2013-03-19 07:11:00,
2013-03-19 00:17:00,52.8,44.4,30.08,West,268,0.0,0.0,73,0.00,,,0.00,Wunderground v.1.15,2013-03-19 07:17:00,
2013-03-19 00:23:00,52.8,43.7,30.08,West,268,0.0,0.0,71,0.00,,,0.00,Wunderground v.1.15,2013-03-19 07:23:00,
2013-03-19 00:30:00,52.8,44.0,30.08,West,268,0.0,-999.0,72,-99.99,,,0.00,weatherlink.com 1.10,2013-03-19 07:30:00,
2013-03-19 00:37:00,52.7,43.9,30.08,West,268,0.0,0.0,72,0.00,,,0.00,Wunderground v.1.15,2013-03-19 07:37:00,
2013-03-19 00:43:00,52.7,43.6,30.08,West,268,0.0,0.0,71,0.00,,,0.00,Wunderground v.1.15,2013-03-19 07:43:00,
2013-03-19 00:51:00,52.7,43.6,30.08,West,268,0.0,0.0,71,0.00,,,0.00,Wunderground v.1.15,2013-03-19 07:51:00,
2013-03-19 00:57:00,52.7,43.6,30.08,West,268,0.0,0.0,71,0.00,,,0.00,Wunderground v.1.15,2013-03-19 07:57:00,
2013-03-19 01:02:00,52.6,44.0,30.07,West,268,0.0,-999.0,72,-99.99,,,0.00,weatherlink.com 1.10,2013-03-19 08:02:00,
2013-03-19 01:07:00,52.4,43.3,30.07,West,268,0.0,0.0,71,0.00,,,0.00,Wunderground v.1.15,2013-03-19 08:07:00,
2013-03-19 01:13:00,52.2,43.1,30.07,West,268,0.0,0.0,71,0.00,,,0.00,Wunderground v.1.15,2013-03-19 08:13:00,
2013-03-19 01:23:00,51.8,43.1,30.07,West,268,0.0,0.0,72,0.00,,,0.00,Wunderground v.1.15,2013-03-19 08:23:00,
2013-03-19 01:32:00,51.3,43.0,30.07,West,268,0.0,-999.0,72,-99.99,,,0.00,weatherlink.com 1.10,2013-03-19 08:32:00,
2013-03-19 01:41:00,51.0,42.6,30.07,West,268,0.0,0.0,73,0.00,,,0.00,Wunderground v.1.15,2013-03-19 08:41:00,
2013-03-19 01:47:00,50.8,42.8,30.07,West,268,0.0,0.0,74,0.00,,,0.00,Wunderground v.1.15,2013-03-19 08:47:00,
2013-03-19 01:53:00,50.7,42.7,30.07,West,268,0.0,0.0,74,0.00,,,0.00,Wunderground v.1.15,2013-03-19 08:53:00,
2013-03-19 02:03:00,50.6,42.6,30.07,West,268,0.0,0.0,74,0.00,,,0.00,Wunderground v.1.15,2013-03-19 09:03:00,
2013-03-19 02:13:00,50.6,43.0,30.07,West,268,0.0,0.0,75,0.00,,,0.00,Wunderground v.1.15,2013-03-19 09:13:00,
2013-03-19 02:19:00,50.6,43.0,30.07,West,268,0.0,-999.0,74,-99.99,,,0.00,weatherlink.com 1.10,2013-03-19 09:19:00,
2013-03-19 02:25:00,50.7,42.7,30.06,West,268,0.0,1.0,74,0.00,,,0.00,Wunderground v.1.15,2013-03-19 09:25:00,
2013-03-19 02:31:00,51.1,43.1,30.06,West,268,0.0,1.0,74,0.00,,,0.00,Wunderground v.1.15,2013-03-19 09:31:00,
2013-03-19 02:37:00,51.2,42.8,30.07,West,268,0.0,0.0,73,0.00,,,0.00,Wunderground v.1.15,2013-03-19 09:37:00,
2013-03-19 02:43:00,51.3,42.9,30.06,West,268,0.0,1.0,73,0.00,,,0.00,Wunderground v.1.15,2013-03-19 09:43:00,
2013-03-19 02:49:00,51.3,43.0,30.06,West,268,0.0,-999.0,74,-99.99,,,0.00,weatherlink.com 1.10,2013-03-19 09:49:00,
2013-03-19 02:55:00,51.2,43.2,30.06,West,268,0.0,0.0,74,0.00,,,0.00,Wunderground v.1.15,2013-03-19 09:55:00,
2013-03-19 03:03:00,50.9,42.9,30.05,West,268,0.0,0.0,74,0.00,,,0.00,Wunderground v.1.15,2013-03-19 10:03:00,
2013-03-19 03:11:00,50.7,43.1,30.06,West,268,0.0,0.0,75,0.00,,,0.00,Wunderground v.1.15,2013-03-19 10:11:00,
2013-03-19 03:17:00,50.5,42.9,30.06,West,268,0.0,0.0,75,0.00,,,0.00,Wunderground v.1.15,2013-03-19 10:17:00,
2013-03-19 03:23:00,50.2,42.9,30.05,West,268,0.0,0.0,76,0.00,,,0.00,Wunderground v.1.15,2013-03-19 10:23:00,
2013-03-19 03:31:00,49.9,43.0,30.05,West,268,0.0,0.0,77,0.00,,,0.00,Wunderground v.1.15,2013-03-19 10:31:00,
2013-03-19 03:43:00,49.3,42.4,30.05,West,268,0.0,0.0,77,0.00,,,0.00,Wunderground v.1.15,2013-03-19 10:43:00,
2013-03-19 03:53:00,48.8,42.6,30.04,West,268,0.0,0.0,79,0.00,,,0.00,Wunderground v.1.15,2013-03-19 10:53:00,
2013-03-19 04:01:00,48.6,42.7,30.04,West,268,0.0,0.0,80,0.00,,,0.00,Wunderground v.1.15,2013-03-19 11:01:00,
2013-03-19 04:07:00,48.5,42.6,30.04,West,268,0.0,0.0,80,0.00,,,0.00,Wunderground v.1.15,2013-03-19 11:07:00,
2013-03-19 04:13:00,48.5,42.6,30.05,West,268,0.0,0.0,80,0.00,,,0.00,Wunderground v.1.15,2013-03-19 11:13:00,
2013-03-19 04:21:00,48.7,43.1,30.04,West,268,0.0,0.0,81,0.00,,,0.00,Wunderground v.1.15,2013-03-19 11:21:00,
2013-03-19 04:27:00,48.8,43.2,30.04,West,268,0.0,0.0,81,0.00,,,0.00,Wunderground v.1.15,2013-03-19 11:27:00,
2013-03-19 04:33:00,49.0,43.4,30.04,West,268,0.0,0.0,81,0.00,,,0.00,Wunderground v.1.15,2013-03-19 11:33:00,
2013-03-19 04:39:00,49.0,43.0,30.04,West,268,0.0,-999.0,81,-99.99,,,0.00,weatherlink.com 1.10,2013-03-19 11:39:00,
2013-03-19 04:47:00,49.2,43.6,30.04,West,268,0.0,0.0,81,0.00,,,0.00,Wunderground v.1.15,2013-03-19 11:47:00,
2013-03-19 04:53:00,49.3,43.7,30.04,West,268,0.0,0.0,81,0.00,,,0.00,Wunderground v.1.15,2013-03-19 11:53:00,
2013-03-19 05:03:00,49.4,43.8,30.04,West,268,0.0,0.0,81,0.00,,,0.00,Wunderground v.1.15,2013-03-19 12:03:00,
2013-03-19 05:09:00,49.4,44.0,30.04,West,268,0.0,-999.0,80,-99.99,,,0.00,weatherlink.com 1.10,2013-03-19 12:09:00,
2013-03-19 05:17:00,49.2,43.3,30.04,West,268,0.0,0.0,80,0.00,,,0.00,Wunderground v.1.15,2013-03-19 12:17:00,
2013-03-19 05:23:00,48.9,43.0,30.04,West,268,0.0,0.0,80,0.00,,,0.00,Wunderground v.1.15,2013-03-19 12:23:00,
2013-03-19 05:33:00,48.4,42.8,30.04,West,268,0.0,0.0,81,0.00,,,0.00,Wunderground v.1.15,2013-03-19 12:33:00,
2013-03-19 05:40:00,48.0,42.0,30.04,West,268,0.0,-999.0,81,-99.99,,,0.00,weatherlink.com 1.10,2013-03-19 12:40:00,
2013-03-19 05:47:00,47.6,42.1,30.04,West,268,0.0,0.0,81,0.00,,,0.00,Wunderground v.1.15,2013-03-19 12:47:00,
2013-03-19 05:53:00,47.4,41.9,30.05,West,268,0.0,0.0,81,0.00,,,0.00,Wunderground v.1.15,2013-03-19 12:53:00,
2013-03-19 06:03:00,46.9,41.7,30.05,West,268,0.0,0.0,82,0.00,,,0.00,Wunderground v.1.15,2013-03-19 13:03:00,
2013-03-19 06:13:00,46.4,41.2,30.05,West,268,0.0,0.0,82,0.00,,,0.00,Wunderground v.1.15,2013-03-19 13:13:00,
2013-03-19 06:23:00,45.9,41.0,30.05,West,268,0.0,0.0,83,0.00,,,0.00,Wunderground v.1.15,2013-03-19 13:23:00,
2013-03-19 06:33:00,45.5,40.6,30.05,West,268,0.0,0.0,83,0.00,,,0.00,Wunderground v.1.15,2013-03-19 13:33:00,
2013-03-19 06:42:00,45.2,40.0,30.05,West,268,0.0,-999.0,83,-99.99,,,0.00,weatherlink.com 1.10,2013-03-19 13:42:00,
2013-03-19 06:47:00,45.0,40.5,30.05,West,268,0.0,0.0,84,0.00,,,0.00,Wunderground v.1.15,2013-03-19 13:47:00,
2013-03-19 06:53:00,44.7,40.5,30.05,West,268,0.0,0.0,85,0.00,,,0.00,Wunderground v.1.15,2013-03-19 13:53:00,
2013-03-19 06:59:00,44.6,40.0,30.05,West,268,0.0,-999.0,85,-99.99,,,0.00,weatherlink.com 1.10,2013-03-19 13:59:00,
2013-03-19 07:05:00,44.3,40.1,30.05,West,268,0.0,0.0,85,0.00,,,0.00,Wunderground v.1.15,2013-03-19 14:05:00,
2013-03-19 07:11:00,44.2,40.3,30.05,West,268,0.0,0.0,86,0.00,,,0.00,Wunderground v.1.15,2013-03-19 14:11:00,
2013-03-19 07:17:00,44.0,40.1,30.06,West,268,0.0,0.0,86,0.00,,,0.00,Wunderground v.1.15,2013-03-19 14:17:00,
2013-03-19 07:23:00,43.9,40.3,30.06,West,268,0.0,0.0,87,0.00,,,0.00,Wunderground v.1.15,2013-03-19 14:23:00,
2013-03-19 07:28:00,43.9,40.0,30.06,West,268,0.0,-999.0,87,-99.99,,,0.00,weatherlink.com 1.10,2013-03-19 14:28:00,
2013-03-19 07:35:00,43.9,40.6,30.08,West,268,0.0,0.0,88,0.00,,,0.00,Wunderground v.1.15,2013-03-19 14:35:00,
2013-03-19 07:41:00,44.1,40.8,30.07,West,268,0.0,0.0,88,0.00,,,0.00,Wunderground v.1.15,2013-03-19 14:41:00,
2013-03-19 07:47:00,44.3,41.0,30.07,West,268,0.0,0.0,88,0.00,,,0.00,Wunderground v.1.15,2013-03-19 14:47:00,
2013-03-19 07:53:00,44.6,41.3,30.08,West,268,0.0,0.0,88,0.00,,,0.00,Wunderground v.1.15,2013-03-19 14:53:00,
2013-03-19 07:59:00,45.1,42.0,30.08,North,360,0.0,-999.0,88,-99.99,,,0.00,weatherlink.com 1.10,2013-03-19 14:59:00,
2013-03-19 08:05:00,45.8,42.2,30.08,North,360,0.0,0.0,87,0.00,,,0.00,Wunderground v.1.15,2013-03-19 15:05:00,
2013-03-19 08:11:00,46.1,42.4,30.08,North,360,0.0,0.0,87,0.00,,,0.00,Wunderground v.1.15,2013-03-19 15:11:00,
2013-03-19 08:17:00,46.8,43.1,30.08,North,360,0.0,0.0,87,0.00,,,0.00,Wunderground v.1.15,2013-03-19 15:17:00,
2013-03-19 08:23:00,47.2,43.2,30.08,North,360,0.0,0.0,86,0.00,,,0.00,Wunderground v.1.15,2013-03-19 15:23:00,
2013-03-19 08:30:00,48.1,44.0,30.08,North,360,0.0,-999.0,86,-99.99,,,0.00,weatherlink.com 1.10,2013-03-19 15:30:00,
2013-03-19 08:37:00,49.0,44.7,30.08,North,360,0.0,0.0,85,0.00,,,0.00,Wunderground v.1.15,2013-03-19 15:37:00,
2013-03-19 08:43:00,49.8,45.2,30.08,North,360,0.0,0.0,84,0.00,,,0.00,Wunderground v.1.15,2013-03-19 15:43:00,
2013-03-19 08:51:00,51.2,44.2,30.09,NNE,19,0.0,0.0,77,0.00,,,0.00,Wunderground v.1.15,2013-03-19 15:51:00,
2013-03-19 08:57:00,52.5,44.4,30.09,NE,38,1.0,1.0,74,0.00,,,0.00,Wunderground v.1.15,2013-03-19 15:57:00,
2013-03-19 09:02:00,53.6,44.0,30.09,NE,39,2.0,-999.0,71,-99.99,,,0.00,weatherlink.com 1.10,2013-03-19 16:02:00,
2013-03-19 09:07:00,54.6,44.2,30.09,NE,41,0.0,3.0,68,0.00,,,0.00,Wunderground v.1.15,2013-03-19 16:07:00,
2013-03-19 09:13:00,55.6,44.4,30.09,NE,42,0.0,0.0,66,0.00,,,0.00,Wunderground v.1.15,2013-03-19 16:13:00,
2013-03-19 09:21:00,56.8,44.3,30.09,NE,44,1.0,1.0,63,0.00,,,0.00,Wunderground v.1.15,2013-03-19 16:21:00,
2013-03-19 09:27:00,57.7,44.3,30.09,NE,44,0.0,1.0,61,0.00,,,0.00,Wunderground v.1.15,2013-03-19 16:27:00,
2013-03-19 09:33:00,58.4,44.0,30.09,NE,44,1.0,-999.0,60,-99.99,,,0.00,weatherlink.com 1.10,2013-03-19 16:33:00,
2013-03-19 09:41:00,59.6,44.8,30.09,NE,44,1.0,1.0,58,0.00,,,0.00,Wunderground v.1.15,2013-03-19 16:41:00,
2013-03-19 09:47:00,60.5,44.2,30.10,SSE,167,2.0,4.0,55,0.00,,,0.00,Wunderground v.1.15,2013-03-19 16:47:00,
2013-03-19 09:53:00,61.2,44.9,30.09,SSE,148,2.0,2.0,55,0.00,,,0.00,Wunderground v.1.15,2013-03-19 16:53:00,
2013-03-19 10:03:00,62.2,44.3,30.09,South,172,2.0,2.0,52,0.00,,,0.00,Wunderground v.1.15,2013-03-19 17:03:00,
2013-03-19 10:11:00,63.0,44.6,30.09,SSE,157,2.0,2.0,51,0.00,,,0.00,Wunderground v.1.15,2013-03-19 17:11:00,
2013-03-19 10:17:00,63.5,44.5,30.10,SSE,159,2.0,2.0,50,0.00,,,0.00,Wunderground v.1.15,2013-03-19 17:17:00,
2013-03-19 10:23:00,63.8,44.8,30.09,SE,132,2.0,2.0,50,0.00,,,0.00,Wunderground v.1.15,2013-03-19 17:23:00,
2013-03-19 10:33:00,64.3,44.2,30.10,SSE,156,2.0,5.0,48,0.00,,,0.00,Wunderground v.1.15,2013-03-19 17:33:00,
2013-03-19 10:41:00,64.7,44.0,30.10,SSE,165,2.0,5.0,47,0.00,,,0.00,Wunderground v.1.15,2013-03-19 17:41:00,
2013-03-19 10:47:00,65.2,43.9,30.10,SSE,158,1.0,2.0,46,0.00,,,0.00,Wunderground v.1.15,2013-03-19 17:47:00,
2013-03-19 10:53:00,65.8,45.0,30.10,SSE,154,1.0,1.0,47,0.00,,,0.00,Wunderground v.1.15,2013-03-19 17:53:00,
2013-03-19 11:03:00,66.6,44.6,30.09,SSE,151,2.0,4.0,45,0.00,,,0.00,Wunderground v.1.15,2013-03-19 18:03:00,
2013-03-19 11:11:00,66.8,44.2,30.09,South,178,3.0,4.0,44,0.00,,,0.00,Wunderground v.1.15,2013-03-19 18:11:00,
2013-03-19 11:17:00,67.1,43.8,30.09,South,179,3.0,4.0,43,0.00,,,0.00,Wunderground v.1.15,2013-03-19 18:17:00,
2013-03-19 11:23:00,67.3,43.4,30.09,SSE,159,2.0,2.0,42,0.00,,,0.00,Wunderground v.1.15,2013-03-19 18:23:00,
2013-03-19 11:31:00,67.4,44.1,30.09,SSE,167,2.0,6.0,43,0.00,,,0.00,Wunderground v.1.15,2013-03-19 18:31:00,
2013-03-19 11:37:00,67.6,44.3,30.09,SE,146,3.0,4.0,43,0.00,,,0.00,Wunderground v.1.15,2013-03-19 18:37:00,
2013-03-19 11:43:00,67.9,44.6,30.09,SSE,159,2.0,7.0,43,0.00,,,0.00,Wunderground v.1.15,2013-03-19 18:43:00,
2013-03-19 11:51:00,68.4,44.4,30.09,SSE,164,3.0,7.0,42,0.00,,,0.00,Wunderground v.1.15,2013-03-19 18:51:00,
2013-03-19 11:57:00,68.7,43.4,30.09,SE,140,3.0,8.0,40,0.00,,,0.00,Wunderground v.1.15,2013-03-19 18:57:00,
2013-03-19 12:03:00,68.7,43.4,30.10,South,180,3.0,4.0,40,0.00,,,0.00,Wunderground v.1.15,2013-03-19 19:03:00,
2013-03-19 12:11:00,68.3,43.0,30.10,SSW,202,4.0,7.0,40,0.00,,,0.00,Wunderground v.1.15,2013-03-19 19:11:00,
2013-03-19 12:17:00,68.3,42.4,30.10,SSW,202,3.0,6.0,39,0.00,,,0.00,Wunderground v.1.15,2013-03-19 19:17:00,
2013-03-19 12:23:00,68.6,43.9,30.09,South,171,2.0,2.0,41,0.00,,,0.00,Wunderground v.1.15,2013-03-19 19:23:00,
2013-03-19 12:33:00,68.8,43.5,30.09,South,173,2.0,4.0,40,0.00,,,0.00,Wunderground v.1.15,2013-03-19 19:33:00,
2013-03-19 12:41:00,68.6,42.6,30.09,SSW,210,3.0,5.0,39,0.00,,,0.00,Wunderground v.1.15,2013-03-19 19:41:00,
2013-03-19 12:47:00,68.0,42.8,30.10,SSW,211,3.0,4.0,40,0.00,,,0.00,Wunderground v.1.15,2013-03-19 19:47:00,
2013-03-19 12:53:00,67.9,44.0,30.10,SSW,204,3.0,3.0,42,0.00,,,0.00,Wunderground v.1.15,2013-03-19 19:53:00,
2013-03-19 13:01:00,67.9,42.7,30.09,SSW,198,4.0,4.0,40,0.00,,,0.00,Wunderground v.1.15,2013-03-19 20:01:00,
2013-03-19 13:08:00,68.6,42.0,30.09,South,189,2.0,-999.0,38,-99.99,,,0.00,weatherlink.com 1.10,2013-03-19 20:08:00,
2013-03-19 13:17:00,68.7,41.4,30.09,South,189,4.0,5.0,37,0.00,,,0.00,Wunderground v.1.15,2013-03-19 20:17:00,
2013-03-19 13:23:00,69.0,40.9,30.09,SSW,206,3.0,5.0,36,0.00,,,0.00,Wunderground v.1.15,2013-03-19 20:23:00,
2013-03-19 13:33:00,69.6,40.0,30.08,SSW,200,3.0,3.0,34,0.00,,,0.00,Wunderground v.1.15,2013-03-19 20:33:00,
2013-03-19 13:43:00,70.7,42.4,30.08,SSE,155,2.0,5.0,36,0.00,,,0.00,Wunderground v.1.15,2013-03-19 20:43:00,
2013-03-19 13:51:00,70.2,41.3,30.08,SSE,159,2.0,5.0,35,0.00,,,0.00,Wunderground v.1.15,2013-03-19 20:51:00,
2013-03-19 13:57:00,70.4,42.9,30.08,SSE,161,2.0,6.0,37,0.00,,,0.00,Wunderground v.1.15,2013-03-19 20:57:00,
2013-03-19 14:03:00,70.6,43.7,30.08,SSE,163,1.0,5.0,38,0.00,,,0.00,Wunderground v.1.15,2013-03-19 21:03:00,
2013-03-19 14:10:00,70.3,43.0,30.07,SSE,163,1.0,-999.0,38,-99.99,,,0.00,weatherlink.com 1.10,2013-03-19 21:10:00,
2013-03-19 14:17:00,69.9,42.4,30.07,SSE,168,2.0,6.0,37,0.00,,,0.00,Wunderground v.1.15,2013-03-19 21:17:00,
2013-03-19 14:23:00,69.8,41.6,30.08,SSE,160,2.0,2.0,36,0.00,,,0.00,Wunderground v.1.15,2013-03-19 21:23:00,
2013-03-19 14:33:00,69.6,42.9,30.07,SSE,168,2.0,4.0,38,0.00,,,0.00,Wunderground v.1.15,2013-03-19 21:33:00,
2013-03-19 14:40:00,69.2,44.0,30.07,SSE,168,0.0,-999.0,40,-99.99,,,0.00,weatherlink.com 1.10,2013-03-19 21:40:00,
2013-03-19 14:47:00,68.5,43.2,30.07,SW,217,3.0,6.0,40,0.00,,,0.00,Wunderground v.1.15,2013-03-19 21:47:00,
2013-03-19 14:53:00,68.1,43.5,30.07,SW,217,3.0,3.0,41,0.00,,,0.00,Wunderground v.1.15,2013-03-19 21:53:00,
2013-03-19 15:03:00,67.7,41.8,30.06,SW,217,1.0,1.0,39,0.00,,,0.00,Wunderground v.1.15,2013-03-19 22:03:00,
2013-03-19 15:10:00,67.9,43.0,30.06,SW,217,0.0,-999.0,40,-99.99,,,0.00,weatherlink.com 1.10,2013-03-19 22:10:00,
2013-03-19 15:17:00,67.8,43.9,30.06,SW,217,1.0,1.0,42,0.00,,,0.00,Wunderground v.1.15,2013-03-19 22:17:00,
2013-03-19 15:23:00,67.7,44.4,30.06,SW,217,1.0,1.0,43,0.00,,,0.00,Wunderground v.1.15,2013-03-19 22:23:00,
2013-03-19 15:33:00,67.5,43.6,30.07,SW,217,1.0,1.0,42,0.00,,,0.00,Wunderground v.1.15,2013-03-19 22:33:00,
2013-03-19 15:39:00,67.2,43.0,30.07,SW,217,0.0,-999.0,42,-99.99,,,0.00,weatherlink.com 1.10,2013-03-19 22:39:00,
2013-03-19 15:47:00,66.7,43.5,30.07,SW,217,1.0,1.0,43,0.00,,,0.00,Wunderground v.1.15,2013-03-19 22:47:00,
2013-03-19 15:55:00,66.3,44.3,30.07,SW,217,0.0,0.0,45,0.00,,,0.00,Wunderground v.1.15,2013-03-19 22:55:00,
2013-03-19 16:03:00,65.8,44.4,30.07,SW,217,0.0,0.0,46,0.00,,,0.00,Wunderground v.1.15,2013-03-19 23:03:00,
2013-03-19 16:10:00,65.6,45.0,30.07,SW,217,0.0,-999.0,48,-99.99,,,0.00,weatherlink.com 1.10,2013-03-19 23:10:00,
2013-03-19 16:17:00,65.4,45.7,30.07,SW,217,1.0,1.0,49,0.00,,,0.00,Wunderground v.1.15,2013-03-19 23:17:00,
2013-03-19 16:23:00,65.4,44.6,30.07,SW,217,0.0,1.0,47,0.00,,,0.00,Wunderground v.1.15,2013-03-19 23:23:00,
2013-03-19 16:33:00,65.2,45.5,30.07,SW,217,1.0,1.0,49,0.00,,,0.00,Wunderground v.1.15,2013-03-19 23:33:00,
2013-03-19 16:41:00,65.0,45.0,30.07,SW,219,0.0,-999.0,49,-99.99,,,0.00,weatherlink.com 1.10,2013-03-19 23:41:00,
2013-03-19 16:47:00,64.8,45.2,30.07,SW,220,1.0,2.0,49,0.00,,,0.00,Wunderground v.1.15,2013-03-19 23:47:00,
2013-03-19 16:53:00,64.5,44.4,30.07,SW,220,1.0,1.0,48,0.00,,,0.00,Wunderground v.1.15,2013-03-19 23:53:00,
2013-03-19 17:01:00,64.0,43.9,30.07,SW,220,2.0,2.0,48,0.00,,,0.00,Wunderground v.1.15,2013-03-20 00:01:00,
2013-03-19 17:07:00,63.8,44.3,30.07,SW,221,2.0,4.0,49,0.00,,,0.00,Wunderground v.1.15,2013-03-20 00:07:00,
2013-03-19 17:13:00,63.7,45.2,30.06,SW,221,1.0,1.0,51,0.00,,,0.00,Wunderground v.1.15,2013-03-20 00:13:00,
2013-03-19 17:21:00,63.5,44.5,30.07,SW,221,0.0,2.0,50,0.00,,,0.00,Wunderground v.1.15,2013-03-20 00:21:00,
2013-03-19 17:31:00,63.2,44.8,30.07,SW,221,0.0,0.0,51,0.00,,,0.00,Wunderground v.1.15,2013-03-20 00:31:00,
2013-03-19 17:37:00,63.1,45.2,30.06,SW,221,0.0,1.0,52,0.00,,,0.00,Wunderground v.1.15,2013-03-20 00:37:00,
2013-03-19 17:42:00,62.9,45.0,30.06,SW,221,0.0,-999.0,52,-99.99,,,0.00,weatherlink.com 1.10,2013-03-20 00:42:00,
2013-03-19 17:53:00,62.6,45.2,30.07,SW,221,0.0,0.0,53,0.00,,,0.00,Wunderground v.1.15,2013-03-20 00:53:00,
2013-03-19 18:03:00,62.4,46.5,30.07,SW,221,0.0,0.0,56,0.00,,,0.00,Wunderground v.1.15,2013-03-20 01:03:00,
2013-03-19 18:11:00,62.1,48.0,30.07,SW,221,0.0,0.0,60,0.00,,,0.00,Wunderground v.1.15,2013-03-20 01:11:00,
2013-03-19 18:17:00,61.8,48.6,30.08,SW,221,0.0,0.0,62,0.00,,,0.00,Wunderground v.1.15,2013-03-20 01:17:00,
2013-03-19 18:23:00,61.6,50.1,30.08,SW,221,0.0,0.0,66,0.00,,,0.00,Wunderground v.1.15,2013-03-20 01:23:00,
2013-03-19 18:29:00,61.3,49.0,30.08,SW,221,0.0,-999.0,65,-99.99,,,0.00,weatherlink.com 1.10,2013-03-20 01:29:00,
2013-03-19 18:35:00,61.1,50.5,30.08,SW,221,0.0,0.0,68,0.00,,,0.00,Wunderground v.1.15,2013-03-20 01:35:00,
2013-03-19 18:41:00,60.6,50.4,30.07,SW,221,0.0,0.0,69,0.00,,,0.00,Wunderground v.1.15,2013-03-20 01:41:00,
2013-03-19 18:47:00,60.3,49.7,30.07,SW,221,0.0,0.0,68,0.00,,,0.00,Wunderground v.1.15,2013-03-20 01:47:00,
2013-03-19 18:53:00,59.9,49.7,30.06,SW,221,0.0,0.0,69,0.00,,,0.00,Wunderground v.1.15,2013-03-20 01:53:00,
2013-03-19 19:01:00,59.5,48.5,30.06,SW,221,0.0,0.0,67,0.00,,,0.00,Wunderground v.1.15,2013-03-20 02:01:00,
2013-03-19 19:07:00,59.4,48.0,30.06,SW,221,0.0,0.0,66,0.00,,,0.00,Wunderground v.1.15,2013-03-20 02:07:00,
2013-03-19 19:13:00,59.3,48.0,30.07,SW,221,0.0,-999.0,67,-99.99,,,0.00,weatherlink.com 1.10,2013-03-20 02:13:00,
2013-03-19 19:21:00,59.2,48.6,30.07,SW,221,1.0,1.0,68,0.00,,,0.00,Wunderground v.1.15,2013-03-20 02:21:00,
2013-03-19 19:27:00,59.0,49.2,30.08,SW,221,0.0,1.0,70,0.00,,,0.00,Wunderground v.1.15,2013-03-20 02:27:00,
2013-03-19 19:33:00,58.9,49.5,30.08,SW,221,0.0,0.0,71,0.00,,,0.00,Wunderground v.1.15,2013-03-20 02:33:00,
2013-03-19 19:43:00,58.4,49.8,30.09,SW,221,0.0,0.0,73,0.00,,,0.00,Wunderground v.1.15,2013-03-20 02:43:00,
2013-03-19 19:51:00,58.0,49.8,30.10,South,186,2.0,2.0,74,0.00,,,0.00,Wunderground v.1.15,2013-03-20 02:51:00,
2013-03-19 19:57:00,57.5,50.3,30.10,South,171,3.0,4.0,77,0.00,,,0.01,Wunderground v.1.15,2013-03-20 02:57:00,
2013-03-19 20:03:00,57.1,50.6,30.10,South,171,1.0,1.0,79,0.00,,,0.01,Wunderground v.1.15,2013-03-20 03:03:00,
2013-03-19 20:11:00,56.5,50.7,30.11,South,171,0.0,0.0,81,0.00,,,0.01,Wunderground v.1.15,2013-03-20 03:11:00,
2013-03-19 20:17:00,56.1,50.7,30.11,South,174,1.0,1.0,82,0.00,,,0.01,Wunderground v.1.15,2013-03-20 03:17:00,
2013-03-19 20:23:00,55.7,50.6,30.11,South,174,2.0,6.0,83,0.00,,,0.02,Wunderground v.1.15,2013-03-20 03:23:00,
2013-03-19 20:32:00,55.1,51.0,30.12,South,174,4.0,-999.0,86,-99.99,,,0.03,weatherlink.com 1.10,2013-03-20 03:32:00,
2013-03-19 20:43:00,54.1,49.7,30.13,SSW,192,2.0,5.0,85,0.08,,,0.04,Wunderground v.1.15,2013-03-20 03:43:00,
2013-03-19 20:51:00,53.2,48.5,30.13,SSW,209,3.0,3.0,84,0.07,,,0.05,Wunderground v.1.15,2013-03-20 03:51:00,
2013-03-19 20:57:00,52.4,47.7,30.13,SSW,202,3.0,4.0,84,0.08,,,0.06,Wunderground v.1.15,2013-03-20 03:57:00,
2013-03-19 21:01:00,52.1,47.7,30.13,SSW,198,2.0,3.0,85,0.08,,,0.06,Wunderground v.1.15,2013-03-20 04:01:00,
2013-03-19 21:02:00,52.0,48.0,30.13,SSW,198,1.0,-999.0,85,-99.99,,,0.06,weatherlink.com 1.10,2013-03-20 04:02:00,
2013-03-19 21:03:00,51.9,47.5,30.13,SSW,198,2.0,3.0,85,0.08,,,0.06,Wunderground v.1.15,2013-03-20 04:03:00,
2013-03-19 21:05:00,51.7,47.6,30.13,SSW,198,1.0,3.0,86,0.07,,,0.06,Wunderground v.1.15,2013-03-20 04:05:00,
2013-03-19 21:11:00,51.4,48.0,30.12,SSW,196,1.0,1.0,88,0.06,,,0.07,Wunderground v.1.15,2013-03-20 04:11:00,
2013-03-19 21:17:00,51.1,48.0,30.12,South,191,1.0,1.0,89,0.05,,,0.07,Wunderground v.1.15,2013-03-20 04:17:00,
2013-03-19 21:23:00,50.9,47.8,30.13,South,188,1.0,1.0,89,0.05,,,0.08,Wunderground v.1.15,2013-03-20 04:23:00,
2013-03-19 21:31:00,50.7,47.9,30.13,South,186,1.0,1.0,90,0.04,,,0.08,Wunderground v.1.15,2013-03-20 04:31:00,
2013-03-19 21:37:00,50.6,48.1,30.13,South,182,1.0,3.0,91,0.04,,,0.09,Wunderground v.1.15,2013-03-20 04:37:00,
2013-03-19 21:43:00,50.5,48.0,30.13,South,180,2.0,2.0,91,0.06,,,0.10,Wunderground v.1.15,2013-03-20 04:43:00,
2013-03-19 21:51:00,50.4,48.2,30.13,South,176,1.0,1.0,92,0.06,,,0.10,Wunderground v.1.15,2013-03-20 04:51:00,
2013-03-19 21:57:00,50.2,48.0,30.12,SSE,156,2.0,9.0,92,0.04,,,0.10,Wunderground v.1.15,2013-03-20 04:57:00,
2013-03-19 22:03:00,50.0,47.5,30.12,SE,138,3.0,6.0,91,0.00,,,0.11,Wunderground v.1.15,2013-03-20 05:03:00,
2013-03-19 22:11:00,49.8,47.6,30.12,SE,135,3.0,3.0,92,0.00,,,0.11,Wunderground v.1.15,2013-03-20 05:11:00,
2013-03-19 22:16:00,49.8,48.0,30.12,SE,134,2.0,-999.0,93,-99.99,,,0.12,weatherlink.com 1.10,2013-03-20 05:16:00,
2013-03-19 22:23:00,49.9,48.0,30.12,SE,132,2.0,2.0,93,0.05,,,0.12,Wunderground v.1.15,2013-03-20 05:23:00,
2013-03-19 22:30:00,49.9,48.0,30.12,SE,132,1.0,-999.0,93,-99.99,,,0.13,weatherlink.com 1.10,2013-03-20 05:30:00,
2013-03-19 22:35:00,49.9,48.0,30.12,SE,131,3.0,3.0,93,0.04,,,0.13,Wunderground v.1.15,2013-03-20 05:35:00,
2013-03-19 22:41:00,49.7,47.5,30.11,SE,130,2.0,3.0,92,0.06,,,0.14,Wunderground v.1.15,2013-03-20 05:41:00,
2013-03-19 22:46:00,49.4,47.0,30.11,SE,130,0.0,-999.0,92,-99.99,,,0.14,weatherlink.com 1.10,2013-03-20 05:46:00,
2013-03-19 22:53:00,49.3,47.1,30.12,SE,130,0.0,0.0,92,0.05,,,0.15,Wunderground v.1.15,2013-03-20 05:53:00,
2013-03-19 23:01:00,49.2,47.3,30.11,SE,130,1.0,1.0,93,0.05,,,0.15,Wunderground v.1.15,2013-03-20 06:01:00,
2013-03-19 23:07:00,49.2,47.3,30.11,SE,130,1.0,1.0,93,0.05,,,0.16,Wunderground v.1.15,2013-03-20 06:07:00,
2013-03-19 23:13:00,49.2,47.3,30.11,SE,130,0.0,1.0,93,0.05,,,0.16,Wunderground v.1.15,2013-03-20 06:13:00,
2013-03-19 23:21:00,49.2,47.5,30.11,SE,130,0.0,0.0,94,0.04,,,0.16,Wunderground v.1.15,2013-03-20 06:21:00,
2013-03-19 23:32:00,49.6,48.0,30.11,SE,130,1.0,-999.0,95,-99.99,,,0.17,weatherlink.com 1.10,2013-03-20 06:32:00,
2013-03-19 23:41:00,49.7,48.3,30.11,SE,130,0.0,0.0,95,0.04,,,0.18,Wunderground v.1.15,2013-03-20 06:41:00,
2013-03-19 23:47:00,49.9,49.0,30.11,SE,130,0.0,-999.0,95,-99.99,,,0.18,weatherlink.com 1.10,2013-03-20 06:47:00,
2013-03-19 23:53:00,50.1,48.7,30.10,SE,132,2.0,2.0,95,0.07,,,0.19,Wunderground v.1.15,2013-03-20 06:53:00,